sensor_id;sensor_type;location;lat;lon;timestamp;pressure;altitude;pressure_sealevel;temperature;humidity
14242;BME280;7205;50.864;12.766;2023-06-24T00:02:01;98500.09;;;16.61;100.00
14242;BME280;7205;50.864;12.766;2023-06-24T00:04:28;98494.16;;;16.59;100.00
14242;BME280;7205;50.864;12.766;2023-06-24T00:06:54;98493.13;;;16.60;100.00
14242;BME280;7205;50.864;12.766;2023-06-24T00:09:25;98493.97;;;16.61;100.00
14242;BME280;7205;50.864;12.766;2023-06-24T00:11:53;98491.94;;;16.63;100.00
14242;BME280;7205;50.864;12.766;2023-06-24T00:14:20;98479.59;;;16.62;100.00
14242;BME280;7205;50.864;12.766;2023-06-24T00:16:47;98490.91;;;16.64;100.00
14242;BME280;7205;50.864;12.766;2023-06-24T00:19:18;98498.50;;;16.67;100.00
14242;BME280;7205;50.864;12.766;2023-06-24T00:21:45;98504.69;;;16.67;100.00
14242;BME280;7205;50.864;12.766;2023-06-24T00:24:12;98496.88;;;16.66;100.00
14242;BME280;7205;50.864;12.766;2023-06-24T00:26:38;98497.06;;;16.64;100.00
14242;BME280;7205;50.864;12.766;2023-06-24T00:29:05;98491.75;;;16.64;100.00
14242;BME280;7205;50.864;12.766;2023-06-24T00:31:32;98498.91;;;16.64;100.00
14242;BME280;7205;50.864;12.766;2023-06-24T00:33:59;98498.50;;;16.67;100.00
14242;BME280;7205;50.864;12.766;2023-06-24T00:36:27;98504.88;;;16.66;100.00
14242;BME280;7205;50.864;12.766;2023-06-24T00:38:55;98505.06;;;16.64;100.00
14242;BME280;7205;50.864;12.766;2023-06-24T00:41:22;98507.09;;;16.62;100.00
14242;BME280;7205;50.864;12.766;2023-06-24T00:43:49;98495.78;;;16.60;100.00
14242;BME280;7205;50.864;12.766;2023-06-24T00:46:16;98498.66;;;16.59;100.00
14242;BME280;7205;50.864;12.766;2023-06-24T00:48:45;98491.69;;;16.58;100.00
14242;BME280;7205;50.864;12.766;2023-06-24T00:51:12;98483.03;;;16.56;100.00
14242;BME280;7205;50.864;12.766;2023-06-24T00:53:40;98496.56;;;16.54;100.00
14242;BME280;7205;50.864;12.766;2023-06-24T00:56:06;98491.59;;;16.51;100.00
14242;BME280;7205;50.864;12.766;2023-06-24T00:58:35;98495.69;;;16.47;100.00
14242;BME280;7205;50.864;12.766;2023-06-24T01:01:04;98497.69;;;16.45;100.00
14242;BME280;7205;50.864;12.766;2023-06-24T01:03:34;98501.22;;;16.46;100.00
14242;BME280;7205;50.864;12.766;2023-06-24T01:06:02;98505.50;;;16.47;100.00
14242;BME280;7205;50.864;12.766;2023-06-24T01:08:29;98501.22;;;16.46;100.00
14242;BME280;7205;50.864;12.766;2023-06-24T01:10:58;98499.34;;;16.46;100.00
14242;BME280;7205;50.864;12.766;2023-06-24T01:13:25;98496.84;;;16.45;100.00
14242;BME280;7205;50.864;12.766;2023-06-24T01:15:52;98496.84;;;16.45;100.00
14242;BME280;7205;50.864;12.766;2023-06-24T01:18:23;98497.50;;;16.47;100.00
14242;BME280;7205;50.864;12.766;2023-06-24T01:20:54;98491.78;;;16.50;100.00
14242;BME280;7205;50.864;12.766;2023-06-24T01:26:49;98487.28;;;16.50;100.00
14242;BME280;7205;50.864;12.766;2023-06-24T01:29:31;98485.25;;;16.52;100.00
14242;BME280;7205;50.864;12.766;2023-06-24T01:32:06;98483.59;;;16.51;100.00
14242;BME280;7205;50.864;12.766;2023-06-24T01:34:38;98477.47;;;16.51;100.00
14242;BME280;7205;50.864;12.766;2023-06-24T01:37:15;98477.66;;;16.49;100.00
14242;BME280;7205;50.864;12.766;2023-06-24T01:39:47;98473.53;;;16.47;100.00
14242;BME280;7205;50.864;12.766;2023-06-24T01:42:17;98470.75;;;16.40;100.00
14242;BME280;7205;50.864;12.766;2023-06-24T01:44:47;98471.72;;;16.33;100.00
14242;BME280;7205;50.864;12.766;2023-06-24T01:47:19;98479.47;;;16.27;100.00
14242;BME280;7205;50.864;12.766;2023-06-24T01:49:49;98475.06;;;16.20;100.00
14242;BME280;7205;50.864;12.766;2023-06-24T01:52:21;98468.84;;;16.13;100.00
14242;BME280;7205;50.864;12.766;2023-06-24T01:54:49;98472.28;;;16.07;100.00
14242;BME280;7205;50.864;12.766;2023-06-24T01:57:17;98470.19;;;16.02;100.00
14242;BME280;7205;50.864;12.766;2023-06-24T01:59:45;98462.09;;;15.96;100.00
14242;BME280;7205;50.864;12.766;2023-06-24T02:02:13;98467.16;;;15.91;100.00
14242;BME280;7205;50.864;12.766;2023-06-24T02:04:45;98477.22;;;15.89;100.00
14242;BME280;7205;50.864;12.766;2023-06-24T02:07:13;98479.03;;;15.88;100.00
14242;BME280;7205;50.864;12.766;2023-06-24T02:09:43;98472.88;;;15.88;100.00
14242;BME280;7205;50.864;12.766;2023-06-24T02:12:11;98471.88;;;15.89;100.00
14242;BME280;7205;50.864;12.766;2023-06-24T02:14:39;98477.41;;;15.87;100.00
14242;BME280;7205;50.864;12.766;2023-06-24T02:17:08;98472.09;;;15.87;100.00
14242;BME280;7205;50.864;12.766;2023-06-24T02:19:36;98473.06;;;15.86;100.00
14242;BME280;7205;50.864;12.766;2023-06-24T02:22:06;98463.63;;;15.84;100.00
14242;BME280;7205;50.864;12.766;2023-06-24T02:24:36;98470.78;;;15.83;100.00
14242;BME280;7205;50.864;12.766;2023-06-24T02:27:05;98464.81;;;15.81;100.00
14242;BME280;7205;50.864;12.766;2023-06-24T02:29:34;98464.19;;;15.79;100.00
14242;BME280;7205;50.864;12.766;2023-06-24T02:32:02;98458.25;;;15.77;100.00
14242;BME280;7205;50.864;12.766;2023-06-24T02:34:29;98452.28;;;15.75;100.00
14242;BME280;7205;50.864;12.766;2023-06-24T02:36:59;98452.66;;;15.72;100.00
14242;BME280;7205;50.864;12.766;2023-06-24T02:39:27;98455.66;;;15.69;100.00
14242;BME280;7205;50.864;12.766;2023-06-24T02:41:54;98458.72;;;15.66;100.00
14242;BME280;7205;50.864;12.766;2023-06-24T02:44:21;98464.41;;;15.63;100.00
14242;BME280;7205;50.864;12.766;2023-06-24T02:46:50;98472.78;;;15.60;100.00
14242;BME280;7205;50.864;12.766;2023-06-24T02:49:18;98470.31;;;15.59;100.00
14242;BME280;7205;50.864;12.766;2023-06-24T02:51:45;98479.47;;;15.56;100.00
14242;BME280;7205;50.864;12.766;2023-06-24T02:54:13;98472.50;;;15.55;100.00
14242;BME280;7205;50.864;12.766;2023-06-24T02:57:00;98479.19;;;15.51;100.00
14242;BME280;7205;50.864;12.766;2023-06-24T02:59:46;98481.03;;;15.51;100.00
14242;BME280;7205;50.864;12.766;2023-06-24T03:02:15;98490.88;;;15.50;100.00
14242;BME280;7205;50.864;12.766;2023-06-24T03:04:44;98498.22;;;15.48;100.00
14242;BME280;7205;50.864;12.766;2023-06-24T03:07:11;98499.25;;;15.47;100.00
14242;BME280;7205;50.864;12.766;2023-06-24T03:09:42;98501.91;;;15.47;100.00
14242;BME280;7205;50.864;12.766;2023-06-24T03:12:11;98498.41;;;15.47;100.00
14242;BME280;7205;50.864;12.766;2023-06-24T03:14:41;98498.41;;;15.47;100.00
14242;BME280;7205;50.864;12.766;2023-06-24T03:17:08;98504.38;;;15.49;100.00
14242;BME280;7205;50.864;12.766;2023-06-24T03:19:35;98508.50;;;15.51;100.00
14242;BME280;7205;50.864;12.766;2023-06-24T03:22:03;98514.91;;;15.57;100.00
14242;BME280;7205;50.864;12.766;2023-06-24T03:24:31;98515.19;;;15.62;100.00
14242;BME280;7205;50.864;12.766;2023-06-24T03:26:58;98513.44;;;15.69;100.00
14242;BME280;7205;50.864;12.766;2023-06-24T03:29:35;98523.16;;;15.76;100.00
14242;BME280;7205;50.864;12.766;2023-06-24T03:32:09;98525.72;;;15.84;100.00
14242;BME280;7205;50.864;12.766;2023-06-24T03:34:36;98529.28;;;15.91;100.00
14242;BME280;7205;50.864;12.766;2023-06-24T03:37:03;98533.88;;;15.97;100.00
14242;BME280;7205;50.864;12.766;2023-06-24T03:39:32;98529.44;;;16.04;100.00
14242;BME280;7205;50.864;12.766;2023-06-24T03:41:58;98533.66;;;16.13;100.00
14242;BME280;7205;50.864;12.766;2023-06-24T03:44:25;98537.03;;;16.22;100.00
14242;BME280;7205;50.864;12.766;2023-06-24T03:46:54;98544.06;;;16.29;100.00
14242;BME280;7205;50.864;12.766;2023-06-24T03:49:20;98537.81;;;16.37;100.00
14242;BME280;7205;50.864;12.766;2023-06-24T03:51:48;98539.06;;;16.41;100.00
14242;BME280;7205;50.864;12.766;2023-06-24T03:54:14;98546.34;;;16.47;100.00
14242;BME280;7205;50.864;12.766;2023-06-24T03:56:41;98551.94;;;16.52;100.00
14242;BME280;7205;50.864;12.766;2023-06-24T03:59:08;98559.34;;;16.57;100.00
14242;BME280;7205;50.864;12.766;2023-06-24T04:01:35;98560.00;;;16.59;100.00
14242;BME280;7205;50.864;12.766;2023-06-24T04:04:04;98564.56;;;16.65;100.00
14242;BME280;7205;50.864;12.766;2023-06-24T04:06:31;98568.50;;;16.69;100.00
14242;BME280;7205;50.864;12.766;2023-06-24T04:08:58;98575.94;;;16.73;100.00
14242;BME280;7205;50.864;12.766;2023-06-24T04:11:25;98570.19;;;16.76;100.00
14242;BME280;7205;50.864;12.766;2023-06-24T04:13:52;98568.38;;;16.77;100.00
14242;BME280;7205;50.864;12.766;2023-06-24T04:16:19;98573.50;;;16.78;100.00
14242;BME280;7205;50.864;12.766;2023-06-24T04:18:45;98568.81;;;16.80;100.00
14242;BME280;7205;50.864;12.766;2023-06-24T04:21:13;98576.63;;;16.82;100.00
14242;BME280;7205;50.864;12.766;2023-06-24T04:23:41;98585.28;;;16.84;100.00
14242;BME280;7205;50.864;12.766;2023-06-24T04:26:07;98584.03;;;16.86;100.00
14242;BME280;7205;50.864;12.766;2023-06-24T04:28:34;98580.38;;;16.87;100.00
14242;BME280;7205;50.864;12.766;2023-06-24T04:31:01;98581.63;;;16.91;100.00
14242;BME280;7205;50.864;12.766;2023-06-24T04:33:28;98579.59;;;16.93;100.00
14242;BME280;7205;50.864;12.766;2023-06-24T04:35:55;98577.56;;;16.95;100.00
14242;BME280;7205;50.864;12.766;2023-06-24T04:38:23;98578.84;;;16.99;100.00
14242;BME280;7205;50.864;12.766;2023-06-24T04:40:50;98580.28;;;17.02;100.00
14242;BME280;7205;50.864;12.766;2023-06-24T04:43:17;98580.53;;;17.07;100.00
14242;BME280;7205;50.864;12.766;2023-06-24T04:45:43;98582.47;;;17.13;100.00
14242;BME280;7205;50.864;12.766;2023-06-24T04:48:10;98587.22;;;17.17;100.00
14242;BME280;7205;50.864;12.766;2023-06-24T04:50:37;98587.00;;;17.19;100.00
14242;BME280;7205;50.864;12.766;2023-06-24T04:53:04;98590.97;;;17.23;100.00
14242;BME280;7205;50.864;12.766;2023-06-24T04:55:32;98588.28;;;17.23;100.00
14242;BME280;7205;50.864;12.766;2023-06-24T04:57:58;98593.63;;;17.23;100.00
14242;BME280;7205;50.864;12.766;2023-06-24T05:00:25;98599.78;;;17.23;100.00
14242;BME280;7205;50.864;12.766;2023-06-24T05:02:52;98593.63;;;17.23;100.00
14242;BME280;7205;50.864;12.766;2023-06-24T05:05:19;98600.59;;;17.24;100.00
14242;BME280;7205;50.864;12.766;2023-06-24T05:07:46;98595.25;;;17.24;100.00
14242;BME280;7205;50.864;12.766;2023-06-24T05:10:13;98594.66;;;17.28;100.00
14242;BME280;7205;50.864;12.766;2023-06-24T05:12:41;98590.59;;;17.32;100.00
14242;BME280;7205;50.864;12.766;2023-06-24T05:15:09;98596.19;;;17.37;100.00
14242;BME280;7205;50.864;12.766;2023-06-24T05:17:36;98592.94;;;17.42;100.00
14242;BME280;7205;50.864;12.766;2023-06-24T05:20:03;98588.88;;;17.46;100.00
14242;BME280;7205;50.864;12.766;2023-06-24T05:22:30;98599.81;;;17.51;100.00
14242;BME280;7205;50.864;12.766;2023-06-24T05:24:57;98595.16;;;17.60;100.00
14242;BME280;7205;50.864;12.766;2023-06-24T05:27:24;98603.44;;;17.71;100.00
14242;BME280;7205;50.864;12.766;2023-06-24T05:29:52;98607.38;;;17.82;100.00
14242;BME280;7205;50.864;12.766;2023-06-24T05:32:19;98607.44;;;17.88;100.00
14242;BME280;7205;50.864;12.766;2023-06-24T05:34:46;98598.81;;;17.93;100.00
14242;BME280;7205;50.864;12.766;2023-06-24T05:37:13;98601.53;;;17.99;100.00
14242;BME280;7205;50.864;12.766;2023-06-24T05:39:40;98600.31;;;18.02;100.00
14242;BME280;7205;50.864;12.766;2023-06-24T05:42:07;98591.69;;;18.06;100.00
14242;BME280;7205;50.864;12.766;2023-06-24T05:44:34;98580.81;;;18.08;100.00
14242;BME280;7205;50.864;12.766;2023-06-24T05:47:02;98575.88;;;18.11;100.00
14242;BME280;7205;50.864;12.766;2023-06-24T05:49:29;98569.50;;;18.12;100.00
14242;BME280;7205;50.864;12.766;2023-06-24T05:51:56;98570.97;;;18.15;100.00
14242;BME280;7205;50.864;12.766;2023-06-24T05:54:23;98574.66;;;18.20;100.00
14242;BME280;7205;50.864;12.766;2023-06-24T05:56:49;98569.53;;;18.19;100.00
14242;BME280;7205;50.864;12.766;2023-06-24T05:59:16;98566.03;;;18.12;100.00
14242;BME280;7205;50.864;12.766;2023-06-24T06:01:43;98557.16;;;18.05;100.00
14242;BME280;7205;50.864;12.766;2023-06-24T06:04:11;98552.44;;;18.07;100.00
14242;BME280;7205;50.864;12.766;2023-06-24T06:06:38;98556.97;;;18.13;100.00
14242;BME280;7205;50.864;12.766;2023-06-24T06:09:05;98561.47;;;18.12;100.00
14242;BME280;7205;50.864;12.766;2023-06-24T06:11:32;98551.59;;;18.06;100.00
14242;BME280;7205;50.864;12.766;2023-06-24T06:13:59;98557.56;;;18.02;100.00
14242;BME280;7205;50.864;12.766;2023-06-24T06:16:25;98553.88;;;18.09;100.00
14242;BME280;7205;50.864;12.766;2023-06-24T06:18:53;98547.47;;;18.10;100.00
14242;BME280;7205;50.864;12.766;2023-06-24T06:21:22;98549.53;;;18.02;100.00
14242;BME280;7205;50.864;12.766;2023-06-24T06:23:48;98546.59;;;17.90;100.00
14242;BME280;7205;50.864;12.766;2023-06-24T06:26:15;98555.59;;;17.83;100.00
14242;BME280;7205;50.864;12.766;2023-06-24T06:28:42;98548.19;;;17.78;100.00
14242;BME280;7205;50.864;12.766;2023-06-24T06:31:09;98550.22;;;17.76;100.00
14242;BME280;7205;50.864;12.766;2023-06-24T06:33:36;98550.66;;;17.80;100.00
14242;BME280;7205;50.864;12.766;2023-06-24T06:36:02;98548.44;;;17.90;100.00
14242;BME280;7205;50.864;12.766;2023-06-24T06:38:32;98556.94;;;18.06;100.00
14242;BME280;7205;50.864;12.766;2023-06-24T06:40:58;98551.59;;;18.06;100.00
14242;BME280;7205;50.864;12.766;2023-06-24T06:43:25;98536.53;;;17.92;98.10
14242;BME280;7205;50.864;12.766;2023-06-24T06:45:52;98530.72;;;17.82;98.18
14242;BME280;7205;50.864;12.766;2023-06-24T06:48:19;98524.94;;;17.79;98.80
14242;BME280;7205;50.864;12.766;2023-06-24T06:50:45;98541.22;;;17.90;100.00
14242;BME280;7205;50.864;12.766;2023-06-24T06:53:12;98540.28;;;18.11;100.00
14242;BME280;7205;50.864;12.766;2023-06-24T06:55:40;98545.91;;;18.29;100.00
14242;BME280;7205;50.864;12.766;2023-06-24T06:58:08;98543.25;;;18.35;97.94
14242;BME280;7205;50.864;12.766;2023-06-24T07:00:35;98528.44;;;18.33;95.84
14242;BME280;7205;50.864;12.766;2023-06-24T07:03:01;98530.25;;;18.26;94.36
14242;BME280;7205;50.864;12.766;2023-06-24T07:05:28;98527.56;;;18.19;93.80
14242;BME280;7205;50.864;12.766;2023-06-24T07:07:55;98524.06;;;18.12;92.65
14242;BME280;7205;50.864;12.766;2023-06-24T07:10:22;98542.75;;;18.06;92.49
14242;BME280;7205;50.864;12.766;2023-06-24T07:12:50;98542.53;;;18.01;91.28
14242;BME280;7205;50.864;12.766;2023-06-24T07:15:24;98541.31;;;18.03;92.95
14242;BME280;7205;50.864;12.766;2023-06-24T07:17:51;98536.44;;;18.20;93.55
14242;BME280;7205;50.864;12.766;2023-06-24T07:20:18;98530.91;;;18.28;90.83
14242;BME280;7205;50.864;12.766;2023-06-24T07:22:44;98532.75;;;18.27;89.07
14242;BME280;7205;50.864;12.766;2023-06-24T07:25:11;98536.88;;;18.30;89.47
14242;BME280;7205;50.864;12.766;2023-06-24T07:27:38;98536.88;;;18.36;89.25
14242;BME280;7205;50.864;12.766;2023-06-24T07:30:07;98536.31;;;18.41;87.70
14242;BME280;7205;50.864;12.766;2023-06-24T07:32:35;98537.78;;;18.50;87.93
14242;BME280;7205;50.864;12.766;2023-06-24T07:35:02;98536.75;;;18.64;87.12
14242;BME280;7205;50.864;12.766;2023-06-24T07:37:28;98529.75;;;18.76;86.41
14242;BME280;7205;50.864;12.766;2023-06-24T07:39:55;98536.78;;;18.90;85.59
14242;BME280;7205;50.864;12.766;2023-06-24T07:42:22;98538.00;;;19.01;84.10
14242;BME280;7205;50.864;12.766;2023-06-24T07:44:49;98531.63;;;19.02;82.78
14242;BME280;7205;50.864;12.766;2023-06-24T07:47:17;98522.75;;;19.01;82.55
14242;BME280;7205;50.864;12.766;2023-06-24T07:49:45;98522.56;;;19.03;82.32
14242;BME280;7205;50.864;12.766;2023-06-24T07:52:11;98515.56;;;19.02;81.75
14242;BME280;7205;50.864;12.766;2023-06-24T07:54:38;98520.72;;;19.10;82.17
14242;BME280;7205;50.864;12.766;2023-06-24T07:57:05;98518.22;;;19.28;82.66
14242;BME280;7205;50.864;12.766;2023-06-24T07:59:32;98510.38;;;19.39;80.75
14242;BME280;7205;50.864;12.766;2023-06-24T08:01:58;98510.56;;;19.44;78.35
14242;BME280;7205;50.864;12.766;2023-06-24T08:04:26;98507.69;;;19.46;77.73
14242;BME280;7205;50.864;12.766;2023-06-24T08:06:53;98505.84;;;19.46;76.66
14242;BME280;7205;50.864;12.766;2023-06-24T08:09:20;98501.53;;;19.45;76.22
14242;BME280;7205;50.864;12.766;2023-06-24T08:11:47;98507.50;;;19.47;76.20
14242;BME280;7205;50.864;12.766;2023-06-24T08:14:14;98515.31;;;19.55;76.37
14242;BME280;7205;50.864;12.766;2023-06-24T08:16:41;98512.78;;;19.67;75.55
14242;BME280;7205;50.864;12.766;2023-06-24T08:19:08;98510.72;;;19.69;74.50
14242;BME280;7205;50.864;12.766;2023-06-24T08:21:36;98508.06;;;19.62;73.26
14242;BME280;7205;50.864;12.766;2023-06-24T08:24:03;98500.69;;;19.45;72.29
14242;BME280;7205;50.864;12.766;2023-06-24T08:26:30;98499.25;;;19.36;71.30
14242;BME280;7205;50.864;12.766;2023-06-24T08:28:57;98508.56;;;19.33;70.76
14242;BME280;7205;50.864;12.766;2023-06-24T08:31:24;98513.06;;;19.39;71.18
14242;BME280;7205;50.864;12.766;2023-06-24T08:33:52;98506.88;;;19.45;70.43
14242;BME280;7205;50.864;12.766;2023-06-24T08:36:21;98517.19;;;19.48;70.30
14242;BME280;7205;50.864;12.766;2023-06-24T08:38:50;98529.75;;;19.48;70.33
14242;BME280;7205;50.864;12.766;2023-06-24T08:41:17;98525.00;;;19.50;71.30
14242;BME280;7205;50.864;12.766;2023-06-24T08:43:44;98515.31;;;19.55;70.64
14242;BME280;7205;50.864;12.766;2023-06-24T08:46:12;98524.56;;;19.59;70.51
14242;BME280;7205;50.864;12.766;2023-06-24T08:48:39;98523.50;;;19.67;70.91
14242;BME280;7205;50.864;12.766;2023-06-24T08:51:09;98522.25;;;19.69;69.88
14242;BME280;7205;50.864;12.766;2023-06-24T08:53:37;98523.25;;;19.81;71.33
14242;BME280;7205;50.864;12.766;2023-06-24T08:56:06;98519.50;;;19.95;70.49
14242;BME280;7205;50.864;12.766;2023-06-24T08:58:33;98528.34;;;20.03;69.12
14242;BME280;7205;50.864;12.766;2023-06-24T09:01:00;98518.44;;;19.96;67.69
14242;BME280;7205;50.864;12.766;2023-06-24T09:03:28;98515.97;;;19.95;68.29
14242;BME280;7205;50.864;12.766;2023-06-24T09:05:55;98517.81;;;20.01;68.25
14242;BME280;7205;50.864;12.766;2023-06-24T09:08:21;98507.88;;;20.08;68.16
14242;BME280;7205;50.864;12.766;2023-06-24T09:10:53;98510.72;;;20.13;67.10
14242;BME280;7205;50.864;12.766;2023-06-24T09:13:27;98512.41;;;20.14;66.78
14242;BME280;7205;50.864;12.766;2023-06-24T09:15:57;98509.66;;;20.27;67.00
14242;BME280;7205;50.864;12.766;2023-06-24T09:18:30;98514.13;;;20.40;66.12
14242;BME280;7205;50.864;12.766;2023-06-24T09:20:57;98513.28;;;20.46;65.49
14242;BME280;7205;50.864;12.766;2023-06-24T09:23:26;98510.19;;;20.42;64.71
14242;BME280;7205;50.864;12.766;2023-06-24T09:25:56;98510.06;;;20.31;64.28
14242;BME280;7205;50.864;12.766;2023-06-24T09:28:27;98507.63;;;20.23;64.67
14242;BME280;7205;50.864;12.766;2023-06-24T09:31:05;98509.06;;;20.25;64.92
14242;BME280;7205;50.864;12.766;2023-06-24T09:33:32;98512.09;;;20.35;63.89
14242;BME280;7205;50.864;12.766;2023-06-24T09:36:02;98510.63;;;20.39;62.89
14242;BME280;7205;50.864;12.766;2023-06-24T09:38:34;98509.19;;;20.37;61.87
14242;BME280;7205;50.864;12.766;2023-06-24T09:41:05;98502.81;;;20.38;61.87
14242;BME280;7205;50.864;12.766;2023-06-24T09:43:35;98517.16;;;20.50;61.89
14242;BME280;7205;50.864;12.766;2023-06-24T09:46:02;98511.31;;;20.59;61.32
14242;BME280;7205;50.864;12.766;2023-06-24T09:48:30;98514.63;;;20.61;61.47
14242;BME280;7205;50.864;12.766;2023-06-24T09:51:00;98509.25;;;20.61;61.29
14242;BME280;7205;50.864;12.766;2023-06-24T09:53:30;98509.25;;;20.61;60.75
14242;BME280;7205;50.864;12.766;2023-06-24T09:55:59;98508.38;;;20.67;60.53
14242;BME280;7205;50.864;12.766;2023-06-24T09:58:26;98513.03;;;20.78;60.30
14242;BME280;7205;50.864;12.766;2023-06-24T10:00:56;98504.56;;;20.81;59.90
14242;BME280;7205;50.864;12.766;2023-06-24T10:03:24;98505.59;;;20.80;59.57
14242;BME280;7205;50.864;12.766;2023-06-24T10:05:51;98505.13;;;20.83;59.74
14242;BME280;7205;50.864;12.766;2023-06-24T10:08:18;98500.53;;;20.90;59.75
14242;BME280;7205;50.864;12.766;2023-06-24T10:10:45;98524.84;;;21.02;60.65
14242;BME280;7205;50.864;12.766;2023-06-24T10:13:12;98510.28;;;21.16;60.17
14242;BME280;7205;50.864;12.766;2023-06-24T10:15:39;98518.66;;;21.26;59.55
14242;BME280;7205;50.864;12.766;2023-06-24T10:18:35;98513.66;;;21.30;59.11
14242;BME280;7205;50.864;12.766;2023-06-24T10:21:02;98514.84;;;21.34;59.04
14242;BME280;7205;50.864;12.766;2023-06-24T10:23:35;98511.34;;;21.33;59.09
14242;BME280;7205;50.864;12.766;2023-06-24T10:26:08;98512.38;;;21.32;58.31
14242;BME280;7205;50.864;12.766;2023-06-24T10:29:09;98516.13;;;21.31;58.53
14242;BME280;7205;50.864;12.766;2023-06-24T10:31:53;98513.69;;;21.48;58.58
14242;BME280;7205;50.864;12.766;2023-06-24T10:34:27;98510.38;;;21.64;57.98
14242;BME280;7205;50.864;12.766;2023-06-24T10:36:54;98513.44;;;21.67;57.24
14242;BME280;7205;50.864;12.766;2023-06-24T10:39:44;98508.53;;;21.64;57.43
14242;BME280;7205;50.864;12.766;2023-06-24T10:42:42;98503.69;;;21.55;56.08
14242;BME280;7205;50.864;12.766;2023-06-24T10:45:17;98507.38;;;21.36;55.23
14242;BME280;7205;50.864;12.766;2023-06-24T10:47:46;98507.75;;;21.21;55.60
14242;BME280;7205;50.864;12.766;2023-06-24T10:50:15;98502.59;;;21.20;56.88
14242;BME280;7205;50.864;12.766;2023-06-24T10:52:43;98499.53;;;21.16;56.40
14242;BME280;7205;50.864;12.766;2023-06-24T10:55:11;98494.84;;;21.05;56.58
14242;BME280;7205;50.864;12.766;2023-06-24T10:57:39;98493.53;;;20.89;56.48
14242;BME280;7205;50.864;12.766;2023-06-24T11:00:07;98490.56;;;20.73;57.07
14242;BME280;7205;50.864;12.766;2023-06-24T11:02:34;98489.63;;;20.61;57.38
14242;BME280;7205;50.864;12.766;2023-06-24T11:05:03;98475.03;;;20.50;57.70
14242;BME280;7205;50.864;12.766;2023-06-24T11:07:32;98495.28;;;20.46;58.45
14242;BME280;7205;50.864;12.766;2023-06-24T11:10:02;98485.00;;;20.43;58.84
14242;BME280;7205;50.864;12.766;2023-06-24T11:12:32;98480.28;;;20.39;58.84
14242;BME280;7205;50.864;12.766;2023-06-24T11:15:02;98474.31;;;20.37;58.81
14242;BME280;7205;50.864;12.766;2023-06-24T11:17:29;98477.81;;;20.37;59.29
14242;BME280;7205;50.864;12.766;2023-06-24T11:19:57;98467.31;;;20.36;59.36
14242;BME280;7205;50.864;12.766;2023-06-24T11:22:25;98464.00;;;20.34;58.94
14242;BME280;7205;50.864;12.766;2023-06-24T11:24:54;98473.13;;;20.33;59.18
14242;BME280;7205;50.864;12.766;2023-06-24T11:27:25;98463.78;;;20.35;59.12
14242;BME280;7205;50.864;12.766;2023-06-24T11:29:53;98458.44;;;20.35;58.52
14242;BME280;7205;50.864;12.766;2023-06-24T11:32:20;98454.91;;;20.35;58.73
14242;BME280;7205;50.864;12.766;2023-06-24T11:34:47;98456.56;;;20.36;58.74
14242;BME280;7205;50.864;12.766;2023-06-24T11:37:16;98451.22;;;20.36;59.34
14242;BME280;7205;50.864;12.766;2023-06-24T11:39:43;98446.88;;;20.35;59.03
14242;BME280;7205;50.864;12.766;2023-06-24T11:42:12;98453.50;;;20.32;58.60
14242;BME280;7205;50.864;12.766;2023-06-24T11:44:42;98446.28;;;20.33;58.57
14242;BME280;7205;50.864;12.766;2023-06-24T11:47:10;98449.13;;;20.38;58.57
14242;BME280;7205;50.864;12.766;2023-06-24T11:49:50;98449.94;;;20.38;59.30
14242;BME280;7205;50.864;12.766;2023-06-24T11:52:17;98440.66;;;20.41;59.62
14242;BME280;7205;50.864;12.766;2023-06-24T11:54:44;98445.97;;;20.47;60.06
14242;BME280;7205;50.864;12.766;2023-06-24T11:57:12;98450.22;;;20.55;59.47
14242;BME280;7205;50.864;12.766;2023-06-24T11:59:39;98447.72;;;20.60;58.69
14242;BME280;7205;50.864;12.766;2023-06-24T12:02:06;98440.88;;;20.64;57.88
14242;BME280;7205;50.864;12.766;2023-06-24T12:04:33;98437.28;;;20.70;57.27
14242;BME280;7205;50.864;12.766;2023-06-24T12:07:00;98436.06;;;20.72;57.90
14242;BME280;7205;50.864;12.766;2023-06-24T12:09:27;98435.84;;;20.74;57.48
14242;BME280;7205;50.864;12.766;2023-06-24T12:11:54;98437.47;;;20.75;57.62
14242;BME280;7205;50.864;12.766;2023-06-24T12:14:22;98430.63;;;20.79;57.87
14242;BME280;7205;50.864;12.766;2023-06-24T12:16:48;98436.16;;;20.84;58.47
14242;BME280;7205;50.864;12.766;2023-06-24T12:19:15;98430.34;;;20.87;57.87
14242;BME280;7205;50.864;12.766;2023-06-24T12:21:42;98436.09;;;20.90;57.60
14242;BME280;7205;50.864;12.766;2023-06-24T12:24:10;98430.50;;;20.92;56.87
14242;BME280;7205;50.864;12.766;2023-06-24T12:26:38;98425.13;;;20.92;57.07
14242;BME280;7205;50.864;12.766;2023-06-24T12:29:05;98425.09;;;20.98;57.44
14242;BME280;7205;50.864;12.766;2023-06-24T12:31:34;98426.91;;;21.04;57.17
14242;BME280;7205;50.864;12.766;2023-06-24T12:34:00;98430.34;;;21.11;57.35
14242;BME280;7205;50.864;12.766;2023-06-24T12:36:27;98424.28;;;21.16;56.84
14242;BME280;7205;50.864;12.766;2023-06-24T12:38:54;98422.63;;;21.15;55.23
14242;BME280;7205;50.864;12.766;2023-06-24T12:41:21;98416.47;;;21.14;55.21
14242;BME280;7205;50.864;12.766;2023-06-24T12:43:47;98424.06;;;21.17;55.06
14242;BME280;7205;50.864;12.766;2023-06-24T12:46:14;98416.38;;;21.21;55.11
14242;BME280;7205;50.864;12.766;2023-06-24T12:48:42;98428.13;;;21.27;55.08
14242;BME280;7205;50.864;12.766;2023-06-24T12:51:09;98424.97;;;21.30;55.41
14242;BME280;7205;50.864;12.766;2023-06-24T12:53:36;98412.94;;;21.32;55.91
14242;BME280;7205;50.864;12.766;2023-06-24T12:56:03;98420.69;;;21.40;56.20
14242;BME280;7205;50.864;12.766;2023-06-24T12:58:30;98421.31;;;21.42;56.29
14242;BME280;7205;50.864;12.766;2023-06-24T13:00:57;98414.22;;;21.48;56.91
14242;BME280;7205;50.864;12.766;2023-06-24T13:03:23;98422.81;;;21.56;56.97
14242;BME280;7205;50.864;12.766;2023-06-24T13:05:52;98414.28;;;21.59;56.94